sensor_id;sensor_type;location;lat;lon;timestamp;temperature;humidity
37786;DHT22;23625;48.784;9.336;2023-10-09T00:00:34;14.10;99.90
37786;DHT22;23625;48.784;9.336;2023-10-09T00:03:06;14.10;99.90
37786;DHT22;23625;48.784;9.336;2023-10-09T00:05:33;14.20;99.90
37786;DHT22;23625;48.784;9.336;2023-10-09T00:08:15;14.20;99.90
37786;DHT22;23625;48.784;9.336;2023-10-09T00:10:48;14.20;99.90
37786;DHT22;23625;48.784;9.336;2023-10-09T00:13:21;14.20;99.90
37786;DHT22;23625;48.784;9.336;2023-10-09T00:16:04;14.10;99.90
37786;DHT22;23625;48.784;9.336;2023-10-09T00:18:40;14.00;99.90
37786;DHT22;23625;48.784;9.336;2023-10-09T00:21:19;14.00;99.90
37786;DHT22;23625;48.784;9.336;2023-10-09T00:23:48;14.00;99.90
37786;DHT22;23625;48.784;9.336;2023-10-09T00:26:25;14.00;99.90
37786;DHT22;23625;48.784;9.336;2023-10-09T00:28:51;13.90;99.90
37786;DHT22;23625;48.784;9.336;2023-10-09T00:31:20;13.90;99.90
37786;DHT22;23625;48.784;9.336;2023-10-09T00:34:04;13.90;99.90
37786;DHT22;23625;48.784;9.336;2023-10-09T00:36:30;13.90;99.90
37786;DHT22;23625;48.784;9.336;2023-10-09T00:38:58;13.80;99.90
37786;DHT22;23625;48.784;9.336;2023-10-09T00:41:26;13.80;99.90
37786;DHT22;23625;48.784;9.336;2023-10-09T00:43:54;14.00;99.90
37786;DHT22;23625;48.784;9.336;2023-10-09T00:46:24;14.00;99.90
37786;DHT22;23625;48.784;9.336;2023-10-09T00:48:53;13.90;99.90
37786;DHT22;23625;48.784;9.336;2023-10-09T00:51:20;13.90;99.90
37786;DHT22;23625;48.784;9.336;2023-10-09T00:53:51;13.90;99.90
37786;DHT22;23625;48.784;9.336;2023-10-09T00:56:19;13.90;99.90
37786;DHT22;23625;48.784;9.336;2023-10-09T00:59:00;13.90;99.90
37786;DHT22;23625;48.784;9.336;2023-10-09T01:01:37;13.90;99.90
37786;DHT22;23625;48.784;9.336;2023-10-09T01:04:05;13.90;99.90
37786;DHT22;23625;48.784;9.336;2023-10-09T01:06:51;14.00;99.90
37786;DHT22;23625;48.784;9.336;2023-10-09T01:09:34;13.90;99.90
37786;DHT22;23625;48.784;9.336;2023-10-09T01:12:09;13.80;99.90
37786;DHT22;23625;48.784;9.336;2023-10-09T01:14:43;13.90;99.90
37786;DHT22;23625;48.784;9.336;2023-10-09T01:17:09;13.80;99.90
37786;DHT22;23625;48.784;9.336;2023-10-09T01:19:35;13.60;99.90
37786;DHT22;23625;48.784;9.336;2023-10-09T01:22:01;13.50;99.90
37786;DHT22;23625;48.784;9.336;2023-10-09T01:24:39;13.50;99.90
37786;DHT22;23625;48.784;9.336;2023-10-09T01:27:08;13.40;99.90
37786;DHT22;23625;48.784;9.336;2023-10-09T01:29:40;13.40;99.90
37786;DHT22;23625;48.784;9.336;2023-10-09T01:32:07;13.40;99.90
37786;DHT22;23625;48.784;9.336;2023-10-09T01:34:42;13.30;99.90
37786;DHT22;23625;48.784;9.336;2023-10-09T01:37:08;13.30;99.90
37786;DHT22;23625;48.784;9.336;2023-10-09T01:39:40;13.20;99.90
37786;DHT22;23625;48.784;9.336;2023-10-09T01:42:07;13.20;99.90
37786;DHT22;23625;48.784;9.336;2023-10-09T01:44:34;13.10;99.90
37786;DHT22;23625;48.784;9.336;2023-10-09T01:47:09;13.10;99.90
37786;DHT22;23625;48.784;9.336;2023-10-09T01:49:42;13.10;99.90
37786;DHT22;23625;48.784;9.336;2023-10-09T01:52:11;13.10;99.90
37786;DHT22;23625;48.784;9.336;2023-10-09T01:54:45;13.10;99.90
37786;DHT22;23625;48.784;9.336;2023-10-09T01:57:18;13.00;99.90
37786;DHT22;23625;48.784;9.336;2023-10-09T01:59:55;13.10;99.90
37786;DHT22;23625;48.784;9.336;2023-10-09T02:02:25;13.10;99.90
37786;DHT22;23625;48.784;9.336;2023-10-09T02:04:51;13.10;99.90
37786;DHT22;23625;48.784;9.336;2023-10-09T02:07:18;13.10;99.90
37786;DHT22;23625;48.784;9.336;2023-10-09T02:09:52;13.10;99.90
37786;DHT22;23625;48.784;9.336;2023-10-09T02:12:19;13.10;99.90
37786;DHT22;23625;48.784;9.336;2023-10-09T02:14:47;13.10;99.90
37786;DHT22;23625;48.784;9.336;2023-10-09T02:17:13;13.10;99.90
37786;DHT22;23625;48.784;9.336;2023-10-09T02:19:45;13.10;99.90
37786;DHT22;23625;48.784;9.336;2023-10-09T02:22:15;13.00;99.90
37786;DHT22;23625;48.784;9.336;2023-10-09T02:24:43;13.00;99.90
37786;DHT22;23625;48.784;9.336;2023-10-09T02:27:15;13.00;99.90
37786;DHT22;23625;48.784;9.336;2023-10-09T02:30:01;13.10;99.90
37786;DHT22;23625;48.784;9.336;2023-10-09T02:32:35;13.00;99.90
37786;DHT22;23625;48.784;9.336;2023-10-09T02:35:04;13.00;99.90
37786;DHT22;23625;48.784;9.336;2023-10-09T02:37:35;12.90;99.90
37786;DHT22;23625;48.784;9.336;2023-10-09T02:40:04;13.00;99.90
37786;DHT22;23625;48.784;9.336;2023-10-09T02:42:34;12.90;99.90
37786;DHT22;23625;48.784;9.336;2023-10-09T02:45:00;13.00;99.90
37786;DHT22;23625;48.784;9.336;2023-10-09T02:47:26;13.00;99.90
37786;DHT22;23625;48.784;9.336;2023-10-09T02:49:57;13.20;99.90
37786;DHT22;23625;48.784;9.336;2023-10-09T02:52:31;13.30;99.90
37786;DHT22;23625;48.784;9.336;2023-10-09T02:55:06;13.40;99.90
37786;DHT22;23625;48.784;9.336;2023-10-09T02:57:37;13.30;99.90
37786;DHT22;23625;48.784;9.336;2023-10-09T03:00:07;13.20;99.90
37786;DHT22;23625;48.784;9.336;2023-10-09T03:02:44;13.20;99.90
37786;DHT22;23625;48.784;9.336;2023-10-09T03:05:14;13.00;99.90
37786;DHT22;23625;48.784;9.336;2023-10-09T03:07:40;13.10;99.90
37786;DHT22;23625;48.784;9.336;2023-10-09T03:10:07;13.40;99.90
37786;DHT22;23625;48.784;9.336;2023-10-09T03:12:35;13.80;99.90
37786;DHT22;23625;48.784;9.336;2023-10-09T03:15:02;14.00;99.90
37786;DHT22;23625;48.784;9.336;2023-10-09T03:17:31;14.20;99.90
37786;DHT22;23625;48.784;9.336;2023-10-09T03:20:02;14.40;99.90
37786;DHT22;23625;48.784;9.336;2023-10-09T03:22:28;14.40;99.90
37786;DHT22;23625;48.784;9.336;2023-10-09T03:24:56;14.50;99.90
37786;DHT22;23625;48.784;9.336;2023-10-09T03:27:21;14.50;99.90
37786;DHT22;23625;48.784;9.336;2023-10-09T03:29:47;14.60;99.90
37786;DHT22;23625;48.784;9.336;2023-10-09T03:32:18;14.70;99.90
37786;DHT22;23625;48.784;9.336;2023-10-09T03:34:44;14.70;99.90
37786;DHT22;23625;48.784;9.336;2023-10-09T03:37:11;14.70;99.90
37786;DHT22;23625;48.784;9.336;2023-10-09T03:39:47;14.70;99.90
37786;DHT22;23625;48.784;9.336;2023-10-09T03:42:14;14.70;99.90
37786;DHT22;23625;48.784;9.336;2023-10-09T03:44:48;14.70;99.90
37786;DHT22;23625;48.784;9.336;2023-10-09T03:47:22;14.70;99.90
37786;DHT22;23625;48.784;9.336;2023-10-09T03:49:51;14.60;99.90
37786;DHT22;23625;48.784;9.336;2023-10-09T03:52:18;14.60;99.90
37786;DHT22;23625;48.784;9.336;2023-10-09T03:54:44;14.50;99.90
37786;DHT22;23625;48.784;9.336;2023-10-09T03:57:13;14.40;99.90
37786;DHT22;23625;48.784;9.336;2023-10-09T03:59:45;14.30;99.90
37786;DHT22;23625;48.784;9.336;2023-10-09T04:02:13;14.20;99.90
37786;DHT22;23625;48.784;9.336;2023-10-09T04:04:38;14.20;99.90
37786;DHT22;23625;48.784;9.336;2023-10-09T04:07:04;14.20;99.90
37786;DHT22;23625;48.784;9.336;2023-10-09T04:09:32;14.20;99.90
37786;DHT22;23625;48.784;9.336;2023-10-09T04:12:05;14.20;99.90
37786;DHT22;23625;48.784;9.336;2023-10-09T04:14:41;14.20;99.90
37786;DHT22;23625;48.784;9.336;2023-10-09T04:17:20;14.20;99.90
37786;DHT22;23625;48.784;9.336;2023-10-09T04:19:55;14.10;99.90
37786;DHT22;23625;48.784;9.336;2023-10-09T04:22:40;14.10;99.90
37786;DHT22;23625;48.784;9.336;2023-10-09T04:25:26;14.00;99.90
37786;DHT22;23625;48.784;9.336;2023-10-09T04:27:55;14.00;99.90
37786;DHT22;23625;48.784;9.336;2023-10-09T04:30:44;13.80;99.90
37786;DHT22;23625;48.784;9.336;2023-10-09T04:33:15;13.80;99.90
37786;DHT22;23625;48.784;9.336;2023-10-09T04:36:04;13.70;99.90
37786;DHT22;23625;48.784;9.336;2023-10-09T04:38:49;13.60;99.90
37786;DHT22;23625;48.784;9.336;2023-10-09T04:41:24;13.50;99.90
37786;DHT22;23625;48.784;9.336;2023-10-09T04:43:54;13.40;99.90
37786;DHT22;23625;48.784;9.336;2023-10-09T04:46:30;13.40;99.90
37786;DHT22;23625;48.784;9.336;2023-10-09T04:49:09;13.30;99.90
37786;DHT22;23625;48.784;9.336;2023-10-09T04:51:55;13.30;99.90
37786;DHT22;23625;48.784;9.336;2023-10-09T04:54:44;13.30;99.90
37786;DHT22;23625;48.784;9.336;2023-10-09T04:57:46;13.10;99.90
37786;DHT22;23625;48.784;9.336;2023-10-09T05:00:14;13.10;99.90
37786;DHT22;23625;48.784;9.336;2023-10-09T05:02:49;13.10;99.90
37786;DHT22;23625;48.784;9.336;2023-10-09T05:05:24;13.10;99.90
37786;DHT22;23625;48.784;9.336;2023-10-09T05:08:13;13.10;99.90
37786;DHT22;23625;48.784;9.336;2023-10-09T05:10:52;13.10;99.90
37786;DHT22;23625;48.784;9.336;2023-10-09T05:13:30;13.00;99.90
37786;DHT22;23625;48.784;9.336;2023-10-09T05:16:16;12.90;99.90
37786;DHT22;23625;48.784;9.336;2023-10-09T05:18:52;12.80;99.90
37786;DHT22;23625;48.784;9.336;2023-10-09T05:21:44;12.90;99.90
37786;DHT22;23625;48.784;9.336;2023-10-09T05:24:13;12.90;99.90
37786;DHT22;23625;48.784;9.336;2023-10-09T05:29:20;12.80;99.90
37786;DHT22;23625;48.784;9.336;2023-10-09T05:32:05;12.80;99.90
37786;DHT22;23625;48.784;9.336;2023-10-09T05:34:51;12.90;99.90
37786;DHT22;23625;48.784;9.336;2023-10-09T05:37:34;12.80;99.90
37786;DHT22;23625;48.784;9.336;2023-10-09T05:40:04;12.90;99.90
37786;DHT22;23625;48.784;9.336;2023-10-09T05:42:46;13.00;99.90
37786;DHT22;23625;48.784;9.336;2023-10-09T05:45:22;13.20;99.90
37786;DHT22;23625;48.784;9.336;2023-10-09T05:48:07;13.30;99.90
37786;DHT22;23625;48.784;9.336;2023-10-09T05:50:52;13.40;99.90
37786;DHT22;23625;48.784;9.336;2023-10-09T05:53:30;13.40;99.90
37786;DHT22;23625;48.784;9.336;2023-10-09T05:56:11;13.40;99.90
37786;DHT22;23625;48.784;9.336;2023-10-09T05:58:55;13.40;99.90
37786;DHT22;23625;48.784;9.336;2023-10-09T06:01:39;13.40;99.90
37786;DHT22;23625;48.784;9.336;2023-10-09T06:04:24;13.30;99.90
37786;DHT22;23625;48.784;9.336;2023-10-09T06:07:08;13.30;99.90
37786;DHT22;23625;48.784;9.336;2023-10-09T06:09:37;13.30;99.90
37786;DHT22;23625;48.784;9.336;2023-10-09T06:12:15;13.20;99.90
37786;DHT22;23625;48.784;9.336;2023-10-09T06:14:59;13.20;99.90
37786;DHT22;23625;48.784;9.336;2023-10-09T06:17:45;13.20;99.90
37786;DHT22;23625;48.784;9.336;2023-10-09T06:20:16;13.20;99.90
37786;DHT22;23625;48.784;9.336;2023-10-09T06:23:01;13.20;99.90
37786;DHT22;23625;48.784;9.336;2023-10-09T06:25:44;13.20;99.90
37786;DHT22;23625;48.784;9.336;2023-10-09T06:28:17;13.20;99.90
37786;DHT22;23625;48.784;9.336;2023-10-09T06:30:45;13.20;99.90
37786;DHT22;23625;48.784;9.336;2023-10-09T06:33:13;13.20;99.90
37786;DHT22;23625;48.784;9.336;2023-10-09T06:35:46;13.20;99.90
37786;DHT22;23625;48.784;9.336;2023-10-09T06:38:19;13.20;99.90
37786;DHT22;23625;48.784;9.336;2023-10-09T06:40:49;13.20;99.90
37786;DHT22;23625;48.784;9.336;2023-10-09T06:43:27;13.20;99.90
37786;DHT22;23625;48.784;9.336;2023-10-09T06:45:57;13.20;99.90
37786;DHT22;23625;48.784;9.336;2023-10-09T06:48:41;13.20;99.90
37786;DHT22;23625;48.784;9.336;2023-10-09T06:51:11;13.30;99.90
37786;DHT22;23625;48.784;9.336;2023-10-09T06:53:52;13.30;99.90
37786;DHT22;23625;48.784;9.336;2023-10-09T06:56:27;13.40;99.90
37786;DHT22;23625;48.784;9.336;2023-10-09T06:58:53;13.40;99.90
37786;DHT22;23625;48.784;9.336;2023-10-09T07:01:26;13.40;99.90
37786;DHT22;23625;48.784;9.336;2023-10-09T07:04:11;13.50;99.90
37786;DHT22;23625;48.784;9.336;2023-10-09T07:06:56;13.70;99.90
37786;DHT22;23625;48.784;9.336;2023-10-09T07:09:22;14.10;99.90
37786;DHT22;23625;48.784;9.336;2023-10-09T07:11:52;14.60;99.90
37786;DHT22;23625;48.784;9.336;2023-10-09T07:14:22;15.10;97.90
37786;DHT22;23625;48.784;9.336;2023-10-09T07:19:32;15.80;93.40
37786;DHT22;23625;48.784;9.336;2023-10-09T07:22:01;16.00;91.60
37786;DHT22;23625;48.784;9.336;2023-10-09T07:24:30;16.20;91.30
37786;DHT22;23625;48.784;9.336;2023-10-09T07:27:16;16.30;90.50
37786;DHT22;23625;48.784;9.336;2023-10-09T07:29:43;16.50;89.10
37786;DHT22;23625;48.784;9.336;2023-10-09T07:32:15;16.60;86.80
37786;DHT22;23625;48.784;9.336;2023-10-09T07:34:53;16.70;86.50
37786;DHT22;23625;48.784;9.336;2023-10-09T07:37:22;16.90;84.00
37786;DHT22;23625;48.784;9.336;2023-10-09T07:39:52;17.10;82.70
37786;DHT22;23625;48.784;9.336;2023-10-09T07:42:24;17.20;81.40
37786;DHT22;23625;48.784;9.336;2023-10-09T07:45:19;17.30;80.60
37786;DHT22;23625;48.784;9.336;2023-10-09T07:47:48;17.40;79.60
37786;DHT22;23625;48.784;9.336;2023-10-09T07:50:40;17.40;79.90
37786;DHT22;23625;48.784;9.336;2023-10-09T07:53:15;17.40;82.80
37786;DHT22;23625;48.784;9.336;2023-10-09T07:55:44;17.40;84.60
37786;DHT22;23625;48.784;9.336;2023-10-09T07:58:30;17.40;86.40
37786;DHT22;23625;48.784;9.336;2023-10-09T08:00:58;17.40;86.80
37786;DHT22;23625;48.784;9.336;2023-10-09T08:03:36;17.40;85.40
37786;DHT22;23625;48.784;9.336;2023-10-09T08:06:02;17.50;83.40
37786;DHT22;23625;48.784;9.336;2023-10-09T08:08:46;17.60;81.80
37786;DHT22;23625;48.784;9.336;2023-10-09T08:11:31;17.70;80.90
37786;DHT22;23625;48.784;9.336;2023-10-09T08:14:20;17.90;79.70
37786;DHT22;23625;48.784;9.336;2023-10-09T08:17:06;18.00;78.10
37786;DHT22;23625;48.784;9.336;2023-10-09T08:19:53;18.10;78.10
37786;DHT22;23625;48.784;9.336;2023-10-09T08:22:36;18.20;77.50
37786;DHT22;23625;48.784;9.336;2023-10-09T08:25:18;18.30;76.40
37786;DHT22;23625;48.784;9.336;2023-10-09T08:28:02;18.40;75.90
37786;DHT22;23625;48.784;9.336;2023-10-09T08:30:39;18.50;75.20
37786;DHT22;23625;48.784;9.336;2023-10-09T08:33:31;18.60;75.20
37786;DHT22;23625;48.784;9.336;2023-10-09T08:36:00;18.70;74.20
37786;DHT22;23625;48.784;9.336;2023-10-09T08:38:30;18.80;73.80
37786;DHT22;23625;48.784;9.336;2023-10-09T08:41:12;18.90;73.70
37786;DHT22;23625;48.784;9.336;2023-10-09T08:43:52;19.00;73.10
37786;DHT22;23625;48.784;9.336;2023-10-09T08:46:24;19.10;72.90
37786;DHT22;23625;48.784;9.336;2023-10-09T08:48:58;19.10;72.60
37786;DHT22;23625;48.784;9.336;2023-10-09T08:51:26;19.20;72.50
37786;DHT22;23625;48.784;9.336;2023-10-09T08:53:52;19.30;72.20
37786;DHT22;23625;48.784;9.336;2023-10-09T08:56:19;19.40;71.60
37786;DHT22;23625;48.784;9.336;2023-10-09T08:58:52;19.40;70.80
37786;DHT22;23625;48.784;9.336;2023-10-09T09:01:20;19.50;70.60
37786;DHT22;23625;48.784;9.336;2023-10-09T09:03:50;19.50;70.70
37786;DHT22;23625;48.784;9.336;2023-10-09T09:06:17;19.50;70.50
37786;DHT22;23625;48.784;9.336;2023-10-09T09:08:45;19.60;70.60
37786;DHT22;23625;48.784;9.336;2023-10-09T09:11:14;19.60;70.60
37786;DHT22;23625;48.784;9.336;2023-10-09T09:16:25;19.80;71.20
37786;DHT22;23625;48.784;9.336;2023-10-09T09:19:01;19.90;70.50
37786;DHT22;23625;48.784;9.336;2023-10-09T09:21:33;20.00;70.80
37786;DHT22;23625;48.784;9.336;2023-10-09T09:24:22;20.10;70.70
37786;DHT22;23625;48.784;9.336;2023-10-09T09:26:49;20.20;71.60
37786;DHT22;23625;48.784;9.336;2023-10-09T09:29:45;20.30;72.40
37786;DHT22;23625;48.784;9.336;2023-10-09T09:32:31;20.40;71.10
37786;DHT22;23625;48.784;9.336;2023-10-09T09:35:03;20.40;70.50
37786;DHT22;23625;48.784;9.336;2023-10-09T09:37:31;20.40;70.30
37786;DHT22;23625;48.784;9.336;2023-10-09T09:40:09;20.50;70.60
37786;DHT22;23625;48.784;9.336;2023-10-09T09:42:58;20.50;70.30
37786;DHT22;23625;48.784;9.336;2023-10-09T09:45:38;20.70;70.30
37786;DHT22;23625;48.784;9.336;2023-10-09T09:48:07;20.70;69.80
37786;DHT22;23625;48.784;9.336;2023-10-09T09:50:36;20.80;69.60
37786;DHT22;23625;48.784;9.336;2023-10-09T09:53:14;20.90;70.00
37786;DHT22;23625;48.784;9.336;2023-10-09T09:55:51;21.00;70.50
37786;DHT22;23625;48.784;9.336;2023-10-09T09:58:23;21.10;69.30
37786;DHT22;23625;48.784;9.336;2023-10-09T10:01:01;21.10;68.30
37786;DHT22;23625;48.784;9.336;2023-10-09T10:03:38;21.20;69.10
37786;DHT22;23625;48.784;9.336;2023-10-09T10:06:09;21.20;69.10
37786;DHT22;23625;48.784;9.336;2023-10-09T10:08:37;21.30;69.50
37786;DHT22;23625;48.784;9.336;2023-10-09T10:11:05;21.40;69.50
37786;DHT22;23625;48.784;9.336;2023-10-09T10:16:10;21.50;67.70
37786;DHT22;23625;48.784;9.336;2023-10-09T10:21:26;21.60;66.00
37786;DHT22;23625;48.784;9.336;2023-10-09T10:24:40;21.70;67.00
37786;DHT22;23625;48.784;9.336;2023-10-09T10:27:26;21.70;66.90
37786;DHT22;23625;48.784;9.336;2023-10-09T10:35:18;21.80;66.60
37786;DHT22;23625;48.784;9.336;2023-10-09T10:37:46;21.90;67.10
37786;DHT22;23625;48.784;9.336;2023-10-09T10:40:39;22.00;66.40
37786;DHT22;23625;48.784;9.336;2023-10-09T10:43:06;22.00;65.40
37786;DHT22;23625;48.784;9.336;2023-10-09T10:45:39;22.00;65.90
37786;DHT22;23625;48.784;9.336;2023-10-09T10:48:10;22.10;65.70
37786;DHT22;23625;48.784;9.336;2023-10-09T10:50:49;22.10;64.60
37786;DHT22;23625;48.784;9.336;2023-10-09T10:53:22;22.00;65.10
37786;DHT22;23625;48.784;9.336;2023-10-09T10:56:00;22.00;65.30
37786;DHT22;23625;48.784;9.336;2023-10-09T10:58:42;22.00;65.40
37786;DHT22;23625;48.784;9.336;2023-10-09T11:01:19;22.00;65.20
37786;DHT22;23625;48.784;9.336;2023-10-09T11:03:50;22.00;66.20
37786;DHT22;23625;48.784;9.336;2023-10-09T11:06:29;22.10;66.10
37786;DHT22;23625;48.784;9.336;2023-10-09T11:09:02;22.10;66.20
37786;DHT22;23625;48.784;9.336;2023-10-09T11:11:35;22.10;66.00
37786;DHT22;23625;48.784;9.336;2023-10-09T11:14:13;22.10;66.30
37786;DHT22;23625;48.784;9.336;2023-10-09T11:16:52;22.20;67.00
37786;DHT22;23625;48.784;9.336;2023-10-09T11:19:23;22.10;66.80
37786;DHT22;23625;48.784;9.336;2023-10-09T11:21:59;22.20;68.00
37786;DHT22;23625;48.784;9.336;2023-10-09T11:24:32;22.30;68.60
37786;DHT22;23625;48.784;9.336;2023-10-09T11:27:02;22.40;67.80
37786;DHT22;23625;48.784;9.336;2023-10-09T11:29:32;22.60;67.50
37786;DHT22;23625;48.784;9.336;2023-10-09T11:32:19;22.80;66.40
37786;DHT22;23625;48.784;9.336;2023-10-09T11:34:49;22.90;66.80
37786;DHT22;23625;48.784;9.336;2023-10-09T11:37:20;23.10;66.60
37786;DHT22;23625;48.784;9.336;2023-10-09T11:39:56;23.10;66.50
37786;DHT22;23625;48.784;9.336;2023-10-09T11:42:23;23.10;64.60
37786;DHT22;23625;48.784;9.336;2023-10-09T11:45:25;23.00;64.90
37786;DHT22;23625;48.784;9.336;2023-10-09T11:47:55;23.00;63.70
37786;DHT22;23625;48.784;9.336;2023-10-09T11:50:41;22.90;64.40
37786;DHT22;23625;48.784;9.336;2023-10-09T11:53:17;22.80;66.80
37786;DHT22;23625;48.784;9.336;2023-10-09T11:55:49;22.70;67.50
37786;DHT22;23625;48.784;9.336;2023-10-09T11:58:19;22.70;68.20
37786;DHT22;23625;48.784;9.336;2023-10-09T12:00:52;22.60;69.30
37786;DHT22;23625;48.784;9.336;2023-10-09T12:03:24;22.50;71.30
37786;DHT22;23625;48.784;9.336;2023-10-09T12:05:57;22.40;76.50
37786;DHT22;23625;48.784;9.336;2023-10-09T12:08:25;22.40;77.90
37786;DHT22;23625;48.784;9.336;2023-10-09T12:10:55;22.40;77.80
37786;DHT22;23625;48.784;9.336;2023-10-09T12:13:22;22.40;80.60
37786;DHT22;23625;48.784;9.336;2023-10-09T12:15:49;22.30;80.50
37786;DHT22;23625;48.784;9.336;2023-10-09T12:18:18;22.30;80.90
37786;DHT22;23625;48.784;9.336;2023-10-09T12:20:44;22.30;77.90
37786;DHT22;23625;48.784;9.336;2023-10-09T12:23:20;22.40;78.40
37786;DHT22;23625;48.784;9.336;2023-10-09T12:25:49;22.40;78.40
37786;DHT22;23625;48.784;9.336;2023-10-09T12:28:14;22.50;77.10
37786;DHT22;23625;48.784;9.336;2023-10-09T12:30:41;22.60;78.40
37786;DHT22;23625;48.784;9.336;2023-10-09T12:33:07;22.80;76.30
37786;DHT22;23625;48.784;9.336;2023-10-09T12:35:37;23.00;73.50
37786;DHT22;23625;48.784;9.336;2023-10-09T12:38:04;23.20;74.20
37786;DHT22;23625;48.784;9.336;2023-10-09T12:40:34;23.30;74.20
37786;DHT22;23625;48.784;9.336;2023-10-09T12:43:00;23.40;71.90
37786;DHT22;23625;48.784;9.336;2023-10-09T12:45:26;23.50;71.80
37786;DHT22;23625;48.784;9.336;2023-10-09T12:47:55;23.50;70.70
37786;DHT22;23625;48.784;9.336;2023-10-09T12:50:35;23.60;71.60
37786;DHT22;23625;48.784;9.336;2023-10-09T12:53:08;23.60;71.20
37786;DHT22;23625;48.784;9.336;2023-10-09T12:55:40;23.60;70.90
37786;DHT22;23625;48.784;9.336;2023-10-09T12:58:10;23.60;68.70
37786;DHT22;23625;48.784;9.336;2023-10-09T13:00:40;23.60;69.50
37786;DHT22;23625;48.784;9.336;2023-10-09T13:03:10;23.60;68.50
37786;DHT22;23625;48.784;9.336;2023-10-09T13:05:55;23.60;68.30
37786;DHT22;23625;48.784;9.336;2023-10-09T13:08:26;23.50;69.40
37786;DHT22;23625;48.784;9.336;2023-10-09T13:11:10;23.50;68.90
37786;DHT22;23625;48.784;9.336;2023-10-09T13:13:40;23.50;68.80
37786;DHT22;23625;48.784;9.336;2023-10-09T13:16:21;23.60;65.90
37786;DHT22;23625;48.784;9.336;2023-10-09T13:18:54;23.70;64.80
37786;DHT22;23625;48.784;9.336;2023-10-09T13:21:20;23.90;64.50
37786;DHT22;23625;48.784;9.336;2023-10-09T13:23:46;24.00;67.90
37786;DHT22;23625;48.784;9.336;2023-10-09T13:26:20;24.20;69.80
37786;DHT22;23625;48.784;9.336;2023-10-09T13:28:54;24.40;66.90
37786;DHT22;23625;48.784;9.336;2023-10-09T13:31:21;24.50;63.70
37786;DHT22;23625;48.784;9.336;2023-10-09T13:33:47;24.50;62.80
37786;DHT22;23625;48.784;9.336;2023-10-09T13:36:14;24.50;62.00
37786;DHT22;23625;48.784;9.336;2023-10-09T13:39:00;24.50;63.50
37786;DHT22;23625;48.784;9.336;2023-10-09T13:41:46;24.50;67.70
37786;DHT22;23625;48.784;9.336;2023-10-09T13:44:12;24.60;70.10
37786;DHT22;23625;48.784;9.336;2023-10-09T13:46:37;24.90;70.80
37786;DHT22;23625;48.784;9.336;2023-10-09T13:49:10;24.90;70.30
37786;DHT22;23625;48.784;9.336;2023-10-09T13:51:42;25.00;67.80
37786;DHT22;23625;48.784;9.336;2023-10-09T13:54:14;25.10;63.60
37786;DHT22;23625;48.784;9.336;2023-10-09T13:57:00;25.30;64.10
37786;DHT22;23625;48.784;9.336;2023-10-09T13:59:29;25.50;57.90
37786;DHT22;23625;48.784;9.336;2023-10-09T14:01:55;25.70;56.30
37786;DHT22;23625;48.784;9.336;2023-10-09T14:04:21;26.00;51.10
37786;DHT22;23625;48.784;9.336;2023-10-09T14:06:51;26.10;51.50
37786;DHT22;23625;48.784;9.336;2023-10-09T14:09:26;26.30;48.30
37786;DHT22;23625;48.784;9.336;2023-10-09T14:12:04;26.30;41.80
37786;DHT22;23625;48.784;9.336;2023-10-09T14:14:34;26.30;43.30
37786;DHT22;23625;48.784;9.336;2023-10-09T14:17:06;26.40;47.80
37786;DHT22;23625;48.784;9.336;2023-10-09T14:19:46;26.40;45.80
37786;DHT22;23625;48.784;9.336;2023-10-09T14:22:17;26.40;40.90
37786;DHT22;23625;48.784;9.336;2023-10-09T14:24:47;26.20;41.70
37786;DHT22;23625;48.784;9.336;2023-10-09T14:27:14;26.10;42.00
37786;DHT22;23625;48.784;9.336;2023-10-09T14:29:49;25.90;42.80
37786;DHT22;23625;48.784;9.336;2023-10-09T14:32:16;25.70;45.20
37786;DHT22;23625;48.784;9.336;2023-10-09T14:34:44;25.50;47.40
37786;DHT22;23625;48.784;9.336;2023-10-09T14:37:17;25.40;51.40
37786;DHT22;23625;48.784;9.336;2023-10-09T14:39:44;25.20;48.20
37786;DHT22;23625;48.784;9.336;2023-10-09T14:42:17;25.10;49.70
37786;DHT22;23625;48.784;9.336;2023-10-09T14:44:43;24.80;50.10
37786;DHT22;23625;48.784;9.336;2023-10-09T14:47:13;24.60;52.00
37786;DHT22;23625;48.784;9.336;2023-10-09T14:49:40;24.50;54.70
37786;DHT22;23625;48.784;9.336;2023-10-09T14:52:12;24.40;55.50
37786;DHT22;23625;48.784;9.336;2023-10-09T14:54:42;24.20;56.00
37786;DHT22;23625;48.784;9.336;2023-10-09T14:57:08;24.10;56.30
37786;DHT22;23625;48.784;9.336;2023-10-09T14:59:37;23.80;56.40
37786;DHT22;23625;48.784;9.336;2023-10-09T15:02:02;23.60;56.50
37786;DHT22;23625;48.784;9.336;2023-10-09T15:04:30;23.40;56.30
37786;DHT22;23625;48.784;9.336;2023-10-09T15:06:56;23.30;55.80
37786;DHT22;23625;48.784;9.336;2023-10-09T15:09:22;23.20;56.50
37786;DHT22;23625;48.784;9.336;2023-10-09T15:11:51;23.00;57.60
37786;DHT22;23625;48.784;9.336;2023-10-09T15:14:17;22.90;57.70
37786;DHT22;23625;48.784;9.336;2023-10-09T15:16:47;22.70;57.50
37786;DHT22;23625;48.784;9.336;2023-10-09T15:19:13;22.60;58.40
37786;DHT22;23625;48.784;9.336;2023-10-09T15:21:40;22.50;59.30
37786;DHT22;23625;48.784;9.336;2023-10-09T15:24:12;22.40;61.40
37786;DHT22;23625;48.784;9.336;2023-10-09T15:26:45;22.20;62.80
37786;DHT22;23625;48.784;9.336;2023-10-09T15:29:18;22.10;63.60
37786;DHT22;23625;48.784;9.336;2023-10-09T15:31:45;21.90;64.30
37786;DHT22;23625;48.784;9.336;2023-10-09T15:34:12;21.80;64.50
37786;DHT22;23625;48.784;9.336;2023-10-09T15:36:38;21.60;65.00
37786;DHT22;23625;48.784;9.336;2023-10-09T15:39:05;21.50;64.70
37786;DHT22;23625;48.784;9.336;2023-10-09T15:41:33;21.60;62.00
37786;DHT22;23625;48.784;9.336;2023-10-09T15:44:00;21.40;62.70
37786;DHT22;23625;48.784;9.336;2023-10-09T15:46:27;21.30;62.70
37786;DHT22;23625;48.784;9.336;2023-10-09T15:48:53;21.20;64.70
37786;DHT22;23625;48.784;9.336;2023-10-09T15:51:21;21.10;66.80
37786;DHT22;23625;48.784;9.336;2023-10-09T15:53:47;21.00;67.80
37786;DHT22;23625;48.784;9.336;2023-10-09T15:56:13;20.90;68.40
37786;DHT22;23625;48.784;9.336;2023-10-09T15:58:40;20.80;68.70
37786;DHT22;23625;48.784;9.336;2023-10-09T16:01:09;20.80;67.00
37786;DHT22;23625;48.784;9.336;2023-10-09T16:03:39;20.50;68.20
37786;DHT22;23625;48.784;9.336;2023-10-09T16:06:06;20.50;68.20
37786;DHT22;23625;48.784;9.336;2023-10-09T16:08:34;20.40;67.70
37786;DHT22;23625;48.784;9.336;2023-10-09T16:11:02;20.30;70.10
37786;DHT22;23625;48.784;9.336;2023-10-09T16:13:27;20.30;70.10
37786;DHT22;23625;48.784;9.336;2023-10-09T16:15:53;20.10;70.30
37786;DHT22;23625;48.784;9.336;2023-10-09T16:18:21;20.10;70.30
37786;DHT22;23625;48.784;9.336;2023-10-09T16:20:47;20.00;71.40
37786;DHT22;23625;48.784;9.336;2023-10-09T16:23:12;20.10;70.70
37786;DHT22;23625;48.784;9.336;2023-10-09T16:25:38;19.90;72.10